Draughon Miller Central Texas Regional Airport
KTPL : rendu visible

Aérodrome :











RETROUVEZ-NOUS SUR...

 
LOGIN :

S'inscrire | Disclaimer

   EN    FR    IT 

 









Légende :    VFR   VFR Marginal   IFR   IFR Intensif   IFR Très Intensif
Visi : 
Plafond : 
>= 8 km
>= 3000ft
5 à 8 km
1000 à 3000 ft
1500m à 5 km
500 à 1000 ft
800 à 1500m
200 à 500 ft
< 800m
< 200 ft
Symboles :   Orages  Brouillard  Fortes neiges  Fortes précipitations  Vent > 20 kt






- Altitude de l'aérodrome : 682 ft
- Code IATA : TPL


KTPL - Draughon Miller Central Texas Regional

DERNIER METAR :
  • 241151Z AUTO 24006KT 10SM CLR 16/16 A2984 RMK AO2 SLP099 T01610161 10167 20161 55003

METARs EXPIRÉS :
  • 241051Z AUTO 22006KT 10SM CLR 17/17 A2983 RMK AO2 SLP096 T01670167
  • 241002Z AUTO 20011KT 10SM SCT011 17/17 A2983 RMK AO2
  • 240951Z AUTO 19010KT 10SM BKN011 17/17 A2983 RMK AO2 SLP095 T01670167

TAF N/A



MET'MAP, la Météo Aéronautique d'un coup d'oeil ! - Copyright ORBIFLY Décembre 2007 - Disclaimer

ORBIFLY MET'MAP TEAM :

Programmation & Développement : Alexandra Zaïnal
Sur une idée originale de : Baudouin d'Aumeries
Assistance à la programmation : Marc-Olivier Méhu
Soutien technique & logistique : Manuel Goepfert

Contact : metmap@orbifly.com




SOURCES & CREDITS :

   NOAA       Earth
Advisory